ADDS METAR Data INFO
IDs: Format: Raw Decoded Include TAF

Data at: 0104 UTC 24 Jun 2018

PAHL 240056Z AUTO 31008G14KT 290V350 10SM BKN060 17/02 A3005 RMK AO2 SLP187 T01720017
PAHL 232356Z AUTO 29011KT 10SM BKN070 17/02 A3006 RMK AO2 SLP189 T01670022 10172 20133 58004
PAHL 232256Z AUTO 29006KT 10SM OVC065 16/03 A3007 RMK AO2 SLP192 T01610028
PAHL 232156Z AUTO 28008KT 10SM FEW050 OVC065 17/03 A3007 RMK AO2 SLP192 T01670033
PAHL 232056Z AUTO VRB06KT 10SM OVC060 16/03 A3007 RMK AO2 SLP193 T01560033 58001
PAHL 231956Z AUTO 28006KT 10SM CLR 16/04 A3007 RMK AO2 SLP192 T01610039
PAHL 231856Z AUTO 30007G14KT 10SM CLR 15/03 A3008 RMK AO2 SLP195 T01500033
PAHL 231756Z AUTO VRB04KT 10SM CLR 13/06 A3008 RMK AO2 SLP194 T01330056 10133 20083 51005
PAHL 231656Z AUTO VRB04KT 10SM FEW055 12/06 A3007 RMK AO2 SLP194 T01220056
PAHL 231556Z AUTO VRB05KT 10SM CLR 11/06 A3007 RMK AO2 SLP192 T01110056
PAHL 231456Z AUTO 29005KT 10SM SCT065 10/06 A3006 RMK AO2 SLP189 T01000056 51010
PAHL 231356Z AUTO 29003KT 10SM BKN055 BKN070 08/04 A3005 RMK AO2 SLP186 T00830044
PAHL 231256Z AUTO 24004KT 10SM CLR 08/04 A3004 RMK AO2 SLP184 T00830044
PAHL 231156Z AUTO 25004KT 10SM CLR 09/04 A3003 RMK AO2 SLP179 T00940044 10150 20094 53013
PAHL 231056Z AUTO 25004KT 10SM CLR 10/04 A3001 RMK AO2 SLP172 T01000044
PAHL 230956Z AUTO 25005KT 10SM CLR 12/04 A3000 RMK AO2 SLP170 T01170044
PAHL 230856Z AUTO 26004KT 10SM CLR 13/04 A2999 RMK AO2 SLP165 T01280039 401720128 53016
PAHL 230756Z AUTO 27005KT 10SM CLR 14/06 A2997 RMK AO2 SLP159 T01390061
PAHL 230656Z AUTO 27003KT 10SM FEW100 15/07 A2996 RMK AO2 SLP153 T01500067
PAHL 230556Z AUTO 22004KT 10SM BKN050 OVC075 15/09 A2994 RMK AO2 SLP149 T01500094 10172 20150 53009
PAHL 230456Z AUTO 23006KT 10SM BKN050 16/10 A2993 RMK AO2 SLP145 T01560100
PAHL 230356Z AUTO 21006KT 10SM OVC047 15/11 A2993 RMK AO2 SLP143 T01500111
PAHL 230256Z AUTO 24007KT 10SM SCT047 OVC060 15/11 A2992 RMK AO2 SLP140 T01500106 53008
PAHL 230156Z AUTO 29005KT 10SM OVC055 17/09 A2990 RMK AO2 SLP135 T01670094
PAHL 230056Z AUTO 28004KT 10SM BKN045 OVC055 16/10 A2990 RMK AO2 SLP134 T01610100
PAHL 222356Z AUTO 31006KT 10SM OVC055 16/10 A2989 RMK AO2 RAE49 SLP132 P0000 60000 T01610100 10167 20156 51009
PAHL 222256Z AUTO 30005KT 10SM -RA SCT039 BKN050 OVC065 17/10 A2989 RMK AO2 RAB06 SLP129 P0000 T01670100
PAHL 222156Z AUTO 24006KT 10SM FEW039 SCT049 BKN065 17/09 A2988 RMK AO2 SLP125 T01670094
PAHL 222056Z AUTO 24006KT 10SM OVC070 16/10 A2987 RMK AO2 RAB07E37 SLP122 P0000 60000 T01610100 51013
PAHL 221956Z AUTO 26007KT 10SM SCT080 17/09 A2985 RMK AO2 SLP117 T01670094
PAHL 221856Z AUTO 25009KT 10SM FEW075 SCT110 17/10 A2984 RMK AO2 SLP113 T01670100
PAHL 221756Z AUTO 26008G15KT 10SM OVC110 16/11 A2983 RMK AO2 SLP108 T01560106 10156 20139 53012
PAHL 221656Z AUTO 25006KT 10SM OVC110 15/11 A2981 RMK AO2 SLP104 T01500106
PAHL 221556Z AUTO 23007KT 10SM OVC110 15/11 A2980 RMK AO2 SLP100 T01500106
PAHL 221456Z AUTO 23007KT 10SM CLR 14/11 A2979 RMK AO2 SLP096 T01440106 53014
PAHL 221356Z AUTO 24004KT 10SM FEW120 14/11 A2978 RMK AO2 SLP091 T01390106